createdAt,value
2022-08-03T00:00:40.207Z,6.90
2022-08-03T00:01:44.791Z,7.47
2022-08-03T00:02:48.684Z,4.65
2022-08-03T00:03:52.818Z,7.03
2022-08-03T00:04:56.570Z,7.93
2022-08-03T00:06:04.103Z,5.85
2022-08-03T00:07:08.967Z,5.07
2022-08-03T00:08:13.819Z,6.18
2022-08-03T00:09:23.541Z,9.35
2022-08-03T00:10:27.781Z,7.63
2022-08-03T00:11:32.152Z,9.70
2022-08-03T00:12:36.670Z,7.55
2022-08-03T00:13:40.570Z,5.70
2022-08-03T00:14:44.360Z,6.97
2022-08-03T00:15:48.201Z,8.23
2022-08-03T00:16:52.042Z,8.85
2022-08-03T00:17:55.929Z,5.88
2022-08-03T00:19:00.808Z,8.30
2022-08-03T00:20:05.402Z,6.20
2022-08-03T00:21:09.875Z,5.68
2022-08-03T00:22:14.117Z,6.80
2022-08-03T00:23:18.291Z,6.15
2022-08-03T00:24:22.210Z,6.95
2022-08-03T00:25:26.029Z,7.03
2022-08-03T00:26:30.416Z,6.80
2022-08-03T00:27:34.802Z,6.18
2022-08-03T00:28:39.535Z,5.32
2022-08-03T00:29:59.642Z,7.32
2022-08-03T00:31:04.223Z,8.45
2022-08-03T00:32:08.145Z,8.50
2022-08-03T00:33:16.460Z,6.82
2022-08-03T00:34:36.301Z,6.25
2022-08-03T00:35:50.132Z,5.28
2022-08-03T00:36:55.001Z,6.82
2022-08-03T00:38:00.031Z,6.47
2022-08-03T00:39:04.384Z,8.05
2022-08-03T00:40:10.398Z,6.43
2022-08-03T00:41:15.579Z,8.35
2022-08-03T00:42:19.652Z,7.65
2022-08-03T00:43:29.301Z,5.72
2022-08-03T00:44:44.256Z,6.72
2022-08-03T00:45:48.468Z,7.25
2022-08-03T00:46:54.714Z,8.98
2022-08-03T00:47:59.387Z,8.40
2022-08-03T00:49:03.386Z,4.68
2022-08-03T00:50:07.957Z,5.88
2022-08-03T00:51:11.791Z,5.88
2022-08-03T00:52:17.491Z,8.63
2022-08-03T00:53:22.382Z,11.55
2022-08-03T00:54:27.818Z,9.82
2022-08-03T00:55:31.924Z,6.40
2022-08-03T00:56:37.836Z,13.20
2022-08-03T00:57:44.052Z,5.60
2022-08-03T00:58:48.031Z,9.27
2022-08-03T00:59:52.259Z,7.13
2022-08-03T01:00:56.089Z,7.38
2022-08-03T01:02:00.014Z,7.28
2022-08-03T01:03:04.027Z,7.10
2022-08-03T01:04:07.893Z,6.57
2022-08-03T01:05:12.329Z,6.60
2022-08-03T01:06:36.402Z,5.78
2022-08-03T01:08:16.604Z,7.68
2022-08-03T01:09:50.063Z,6.63
2022-08-03T01:11:15.971Z,7.80
2022-08-03T01:12:45.855Z,6.80
2022-08-03T01:14:19.342Z,5.75
2022-08-03T01:15:40.928Z,5.43
2022-08-03T01:17:02.340Z,5.15
2022-08-03T01:18:33.056Z,5.05
2022-08-03T01:19:51.038Z,8.40
2022-08-03T01:21:01.391Z,6.60
2022-08-03T01:22:23.706Z,9.35
2022-08-03T01:24:21.393Z,6.15
2022-08-03T01:26:22.511Z,8.18
2022-08-03T01:27:43.707Z,5.38
2022-08-03T01:29:09.206Z,8.82
2022-08-03T01:30:14.332Z,8.85
2022-08-03T01:31:27.665Z,9.05
2022-08-03T01:32:53.471Z,6.60
2022-08-03T01:34:14.759Z,6.68
2022-08-03T01:35:29.594Z,7.45
2022-08-03T01:36:43.545Z,5.53
2022-08-03T01:38:01.391Z,6.40
2022-08-03T01:39:11.717Z,5.80
2022-08-03T01:40:18.038Z,6.55
2022-08-03T01:41:37.360Z,6.60
2022-08-03T01:42:44.861Z,5.28
2022-08-03T01:44:28.448Z,7.65
2022-08-03T01:45:19.066Z,5.75
2022-08-03T01:46:26.461Z,7.82
2022-08-03T01:47:33.076Z,6.50
2022-08-03T01:48:42.307Z,8.25
2022-08-03T01:49:48.269Z,6.03
2022-08-03T01:50:56.139Z,5.93
2022-08-03T01:52:05.390Z,5.45
2022-08-03T01:53:12.156Z,5.57
2022-08-03T01:54:17.709Z,7.78
2022-08-03T01:55:25.279Z,6.32
2022-08-03T01:56:32.338Z,8.40
2022-08-03T01:58:05.634Z,5.63
2022-08-03T01:59:05.696Z,6.90
2022-08-03T02:00:10.863Z,6.35
2022-08-03T02:01:17.524Z,6.30
2022-08-03T02:02:33.044Z,6.55
2022-08-03T02:04:00.243Z,7.20
2022-08-03T02:05:10.625Z,8.13
2022-08-03T02:06:59.661Z,8.65
2022-08-03T02:07:45.429Z,6.57
2022-08-03T02:08:53.305Z,5.95
2022-08-03T02:09:59.910Z,12.13
2022-08-03T02:11:06.147Z,8.60
2022-08-03T02:12:12.597Z,8.73
2022-08-03T02:13:20.915Z,6.00
2022-08-03T02:14:27.060Z,6.53
2022-08-03T02:15:33.752Z,5.05
2022-08-03T02:16:38.949Z,11.80
2022-08-03T02:17:45.997Z,6.45
2022-08-03T02:18:50.422Z,7.55
2022-08-03T02:19:58.715Z,9.75
2022-08-03T02:21:10.815Z,7.00
2022-08-03T02:22:16.487Z,6.68
2022-08-03T02:23:21.198Z,6.03
2022-08-03T02:24:25.423Z,7.93
2022-08-03T02:25:32.265Z,8.38
2022-08-03T02:26:40.335Z,15.18
2022-08-03T02:27:55.473Z,5.93
2022-08-03T02:29:13.935Z,7.25
2022-08-03T02:30:20.506Z,7.97
2022-08-03T02:31:31.285Z,10.38
2022-08-03T02:32:43.042Z,6.85
2022-08-03T02:34:03.724Z,8.60
2022-08-03T02:35:13.790Z,8.63
2022-08-03T02:36:25.667Z,7.25
2022-08-03T02:37:35.930Z,11.82
2022-08-03T02:38:44.569Z,6.95
2022-08-03T02:39:53.541Z,6.75
2022-08-03T02:41:00.633Z,6.53
2022-08-03T02:42:09.149Z,6.63
2022-08-03T02:43:23.673Z,5.32
2022-08-03T02:44:32.789Z,12.93
2022-08-03T02:45:45.938Z,9.90
2022-08-03T02:46:57.890Z,6.90
2022-08-03T02:48:07.136Z,8.95
2022-08-03T02:49:40.830Z,7.57
2022-08-03T02:50:42.957Z,9.90
2022-08-03T02:51:52.085Z,8.88
2022-08-03T02:52:59.065Z,7.95
2022-08-03T02:54:05.489Z,5.18
2022-08-03T02:55:12.597Z,7.70
2022-08-03T02:56:19.263Z,8.00
2022-08-03T02:57:27.552Z,9.23
2022-08-03T02:58:33.866Z,7.35
2022-08-03T02:59:39.646Z,6.70
2022-08-03T03:00:46.198Z,5.65
2022-08-03T03:01:51.821Z,8.85
2022-08-03T03:03:02.954Z,5.15
2022-08-03T03:04:10.222Z,11.88
2022-08-03T03:05:54.568Z,7.68
2022-08-03T03:06:43.297Z,5.10
2022-08-03T03:07:53.145Z,7.00
2022-08-03T03:08:59.930Z,6.25
2022-08-03T03:10:05.597Z,7.72
2022-08-03T03:11:11.685Z,6.70
2022-08-03T03:12:18.496Z,5.28
2022-08-03T03:13:23.214Z,5.10
2022-08-03T03:14:33.199Z,6.65
2022-08-03T03:15:41.423Z,6.35
2022-08-03T03:16:50.698Z,5.55
2022-08-03T03:18:02.892Z,5.32
2022-08-03T03:19:09.590Z,7.45
2022-08-03T03:20:15.964Z,5.93
2022-08-03T03:21:37.377Z,7.38
2022-08-03T03:22:45.263Z,5.55
2022-08-03T03:23:50.757Z,7.07
2022-08-03T03:24:56.151Z,10.93
2022-08-03T03:26:00.969Z,5.53
2022-08-03T03:27:05.396Z,5.32
2022-08-03T03:28:11.869Z,6.60
2022-08-03T03:29:16.795Z,4.57
2022-08-03T03:30:20.794Z,8.60
2022-08-03T03:31:25.137Z,4.63
2022-08-03T03:32:30.650Z,5.35
2022-08-03T03:33:36.583Z,4.75
2022-08-03T03:34:41.403Z,10.30
2022-08-03T03:35:48.675Z,6.07
2022-08-03T03:36:52.953Z,5.35
2022-08-03T03:37:57.646Z,9.80
2022-08-03T03:39:15.142Z,9.02
2022-08-03T03:40:19.931Z,5.95
2022-08-03T03:41:24.829Z,6.50
2022-08-03T03:42:28.849Z,17.48
2022-08-03T03:43:33.626Z,5.05
2022-08-03T03:44:37.599Z,5.47
2022-08-03T03:45:44.619Z,9.88
2022-08-03T03:46:48.821Z,10.75
2022-08-03T03:47:53.369Z,5.32
2022-08-03T03:48:57.423Z,7.13
2022-08-03T03:50:04.727Z,6.30
2022-08-03T03:51:10.107Z,5.53
2022-08-03T03:52:14.154Z,6.03
2022-08-03T03:53:18.357Z,5.68
2022-08-03T03:54:22.497Z,5.88
2022-08-03T03:55:30.642Z,6.50
2022-08-03T03:56:34.556Z,8.80
2022-08-03T03:57:38.629Z,6.15
2022-08-03T03:58:42.493Z,6.15
2022-08-03T03:59:46.405Z,7.18
2022-08-03T04:00:51.175Z,5.13
2022-08-03T04:01:58.856Z,7.30
2022-08-03T04:03:03.261Z,6.25
2022-08-03T04:04:25.677Z,5.10
2022-08-03T04:05:48.165Z,6.38
2022-08-03T04:07:10.617Z,7.55
2022-08-03T04:08:38.137Z,6.35
2022-08-03T04:10:14.100Z,7.82
2022-08-03T04:11:30.271Z,6.70
2022-08-03T04:12:38.995Z,6.18
2022-08-03T04:14:11.167Z,9.63
2022-08-03T04:15:18.135Z,9.40
2022-08-03T04:16:28.206Z,8.57
2022-08-03T04:17:33.136Z,5.40
2022-08-03T04:18:41.925Z,7.00
2022-08-03T04:19:54.099Z,8.10
2022-08-03T04:21:04.896Z,5.85
2022-08-03T04:22:14.554Z,8.38
2022-08-03T04:23:24.873Z,5.68
2022-08-03T04:24:39.081Z,6.03
2022-08-03T04:25:44.710Z,8.57
2022-08-03T04:26:52.883Z,5.70
2022-08-03T04:28:08.240Z,6.18
2022-08-03T04:29:29.284Z,6.63
2022-08-03T04:30:38.230Z,6.57
2022-08-03T04:31:46.929Z,9.10
2022-08-03T04:32:52.451Z,7.25
2022-08-03T04:33:57.676Z,10.00
2022-08-03T04:35:01.798Z,8.80
2022-08-03T04:36:10.300Z,10.90
2022-08-03T04:37:30.513Z,7.18
2022-08-03T04:38:56.917Z,6.57
2022-08-03T04:40:06.247Z,8.68
2022-08-03T04:41:11.204Z,5.75
2022-08-03T04:42:19.058Z,10.55
2022-08-03T04:43:26.051Z,9.25
2022-08-03T04:44:31.956Z,11.40
2022-08-03T04:45:37.596Z,8.40
2022-08-03T04:46:50.529Z,7.22
2022-08-03T04:47:58.078Z,7.65
2022-08-03T04:49:02.967Z,7.47
2022-08-03T04:50:12.527Z,9.55
2022-08-03T04:51:18.343Z,6.07
2022-08-03T04:52:22.594Z,7.43
2022-08-03T04:53:26.605Z,7.28
2022-08-03T04:54:31.323Z,6.80
2022-08-03T04:55:36.807Z,10.77
2022-08-03T04:56:41.920Z,8.65
2022-08-03T04:57:45.888Z,7.63
2022-08-03T04:58:49.821Z,8.40
2022-08-03T05:00:01.499Z,7.32
2022-08-03T05:01:06.848Z,6.72
2022-08-03T05:02:10.670Z,7.57
2022-08-03T05:03:23.803Z,7.57
2022-08-03T05:04:28.518Z,7.93
2022-08-03T05:05:49.429Z,10.18
2022-08-03T05:06:55.860Z,10.57
2022-08-03T05:08:00.774Z,7.45
2022-08-03T05:09:07.785Z,6.72
2022-08-03T05:10:16.507Z,6.03
2022-08-03T05:11:20.760Z,7.05
2022-08-03T05:12:25.844Z,7.22
2022-08-03T05:13:31.129Z,5.22
2022-08-03T05:14:39.750Z,6.25
2022-08-03T05:15:43.671Z,6.32
2022-08-03T05:16:47.757Z,9.13
2022-08-03T05:17:51.660Z,6.57
2022-08-03T05:18:55.438Z,5.50
2022-08-03T05:19:59.525Z,9.40
2022-08-03T05:21:03.576Z,8.00
2022-08-03T05:22:07.640Z,5.65
2022-08-03T05:23:11.797Z,5.65
2022-08-03T05:24:15.776Z,5.57
2022-08-03T05:25:21.431Z,9.40
2022-08-03T05:26:28.237Z,10.13
2022-08-03T05:27:32.244Z,8.55
2022-08-03T05:28:36.139Z,6.30
2022-08-03T05:29:40.074Z,7.22
2022-08-03T05:30:44.245Z,7.35
2022-08-03T05:31:48.158Z,9.27
2022-08-03T05:32:53.650Z,4.80
2022-08-03T05:33:58.081Z,6.65
2022-08-03T05:35:57.397Z,7.25
2022-08-03T05:36:25.995Z,5.60
2022-08-03T05:37:30.094Z,15.75
2022-08-03T05:38:35.412Z,9.85
2022-08-03T05:39:39.563Z,9.23
2022-08-03T05:40:56.836Z,6.43
2022-08-03T05:42:02.904Z,8.10
2022-08-03T05:43:06.922Z,6.85
2022-08-03T05:44:11.103Z,4.80
2022-08-03T05:45:15.124Z,4.68
2022-08-03T05:46:18.931Z,8.45
2022-08-03T05:47:23.054Z,6.22
2022-08-03T05:48:27.216Z,5.50
2022-08-03T05:49:31.327Z,4.88
2022-08-03T05:50:39.897Z,6.00
2022-08-03T05:51:46.985Z,4.82
2022-08-03T05:53:03.854Z,7.95
2022-08-03T05:54:07.986Z,4.93
2022-08-03T05:55:14.114Z,4.80
2022-08-03T05:56:18.282Z,5.22
2022-08-03T05:57:22.437Z,5.05
2022-08-03T05:58:26.264Z,5.88
2022-08-03T05:59:38.492Z,9.68
2022-08-03T06:00:42.547Z,5.68
2022-08-03T06:01:46.953Z,5.57
2022-08-03T06:02:51.352Z,7.18
2022-08-03T06:03:55.245Z,6.63
2022-08-03T06:04:59.111Z,6.05
2022-08-03T06:06:02.938Z,7.65
2022-08-03T06:07:07.101Z,8.00
2022-08-03T06:08:10.971Z,5.18
2022-08-03T06:09:19.789Z,4.88
2022-08-03T06:10:35.007Z,5.30
2022-08-03T06:11:42.310Z,5.25
2022-08-03T06:12:51.208Z,7.22
2022-08-03T06:13:57.447Z,7.40
2022-08-03T06:15:01.712Z,5.57
2022-08-03T06:16:06.378Z,5.80
2022-08-03T06:17:10.796Z,6.22
2022-08-03T06:18:16.497Z,5.90
2022-08-03T06:19:20.678Z,4.95
2022-08-03T06:20:26.619Z,5.93
2022-08-03T06:21:31.327Z,6.05
2022-08-03T06:22:36.271Z,5.07
2022-08-03T06:23:55.680Z,11.25
2022-08-03T06:25:04.076Z,6.10
2022-08-03T06:26:09.160Z,10.45
2022-08-03T06:27:14.237Z,4.32
2022-08-03T06:28:51.500Z,5.13
2022-08-03T06:29:42.409Z,5.78
2022-08-03T06:30:47.058Z,5.28
2022-08-03T06:31:53.918Z,5.22
2022-08-03T06:32:57.823Z,7.97
2022-08-03T06:34:32.839Z,5.28
2022-08-03T06:35:29.573Z,7.18
2022-08-03T06:36:34.010Z,7.50
2022-08-03T06:37:46.770Z,5.43
2022-08-03T06:38:50.582Z,8.55
2022-08-03T06:39:54.885Z,5.13
2022-08-03T06:40:58.889Z,6.90
2022-08-03T06:42:02.875Z,6.35
2022-08-03T06:43:12.338Z,6.53
2022-08-03T06:44:16.724Z,5.93
2022-08-03T06:45:20.895Z,5.50
2022-08-03T06:46:26.017Z,6.63
2022-08-03T06:47:30.019Z,8.88
2022-08-03T06:48:34.942Z,6.90
2022-08-03T06:49:38.744Z,6.65
2022-08-03T06:50:44.528Z,8.50
2022-08-03T06:52:05.268Z,7.70
2022-08-03T06:53:11.384Z,7.03
2022-08-03T06:54:24.672Z,5.43
2022-08-03T06:55:28.955Z,4.63
2022-08-03T06:56:32.708Z,5.57
2022-08-03T06:57:36.539Z,5.13
2022-08-03T06:58:40.529Z,7.72
2022-08-03T07:00:09.903Z,10.18
2022-08-03T07:01:09.215Z,6.80
2022-08-03T07:02:19.050Z,5.35
2022-08-03T07:03:23.887Z,8.95
2022-08-03T07:04:27.944Z,5.18
2022-08-03T07:05:36.118Z,5.85
2022-08-03T07:06:41.147Z,4.68
2022-08-03T07:07:45.348Z,3.35
2022-08-03T07:08:52.301Z,6.80
2022-08-03T07:09:58.295Z,6.15
2022-08-03T07:11:02.914Z,5.78
2022-08-03T07:12:08.504Z,4.93
2022-08-03T07:13:13.534Z,7.35
2022-08-03T07:14:17.236Z,4.63
2022-08-03T07:15:54.600Z,6.55
2022-08-03T07:16:45.448Z,4.28
2022-08-03T07:17:49.391Z,5.32
2022-08-03T07:18:53.186Z,5.95
2022-08-03T07:19:58.106Z,4.25
2022-08-03T07:21:01.987Z,5.30
2022-08-03T07:22:05.897Z,3.92
2022-08-03T07:23:10.147Z,5.65
2022-08-03T07:24:21.813Z,4.05
2022-08-03T07:25:26.280Z,5.38
2022-08-03T07:26:30.497Z,4.85
2022-08-03T07:27:34.749Z,7.78
2022-08-03T07:28:38.509Z,4.45
2022-08-03T07:29:42.604Z,6.05
2022-08-03T07:30:46.739Z,5.50
2022-08-03T07:31:50.877Z,5.88
2022-08-03T07:32:55.041Z,4.28
2022-08-03T07:33:59.082Z,11.02
2022-08-03T07:35:16.907Z,5.57
2022-08-03T07:36:28.777Z,3.80
2022-08-03T07:37:33.925Z,4.72
2022-08-03T07:38:38.151Z,3.90
2022-08-03T07:39:42.267Z,8.27
2022-08-03T07:40:46.700Z,5.55
2022-08-03T07:41:52.067Z,8.25
2022-08-03T07:42:56.142Z,6.65
2022-08-03T07:44:00.643Z,5.10
2022-08-03T07:45:06.114Z,5.18
2022-08-03T07:46:10.100Z,5.57
2022-08-03T07:47:22.778Z,4.22
2022-08-03T07:48:27.049Z,4.07
2022-08-03T07:49:32.158Z,4.78
2022-08-03T07:50:36.257Z,3.92
2022-08-03T07:51:40.706Z,3.85
2022-08-03T07:52:51.724Z,4.35
2022-08-03T07:53:57.962Z,3.80
2022-08-03T07:55:02.128Z,5.45
2022-08-03T07:56:06.446Z,6.22
2022-08-03T07:57:15.789Z,3.75
2022-08-03T07:58:24.015Z,6.45
2022-08-03T07:59:28.831Z,5.72
2022-08-03T08:00:53.475Z,5.07
2022-08-03T08:01:57.836Z,6.18
2022-08-03T08:03:02.516Z,2.80
2022-08-03T08:04:06.514Z,6.15
2022-08-03T08:05:11.393Z,3.85
2022-08-03T08:06:16.706Z,3.67
2022-08-03T08:07:20.817Z,4.70
2022-08-03T08:08:25.096Z,4.53
2022-08-03T08:09:29.116Z,4.15
2022-08-03T08:10:33.341Z,4.63
2022-08-03T08:11:40.099Z,3.75
2022-08-03T08:12:44.549Z,5.65
2022-08-03T08:13:48.417Z,3.30
2022-08-03T08:14:52.654Z,3.45
2022-08-03T08:15:57.471Z,3.88
2022-08-03T08:17:04.455Z,3.50
2022-08-03T08:18:11.470Z,9.43
2022-08-03T08:19:16.924Z,4.13
2022-08-03T08:20:34.881Z,3.50
2022-08-03T08:21:53.633Z,3.38
2022-08-03T08:23:19.913Z,4.60
2022-08-03T08:24:34.368Z,6.07
2022-08-03T08:25:38.681Z,4.10
2022-08-03T08:26:42.679Z,3.47
2022-08-03T08:28:31.930Z,3.45
2022-08-03T08:29:13.689Z,3.33
2022-08-03T08:30:20.914Z,5.97
2022-08-03T08:31:27.677Z,5.90
2022-08-03T08:32:32.397Z,5.05
2022-08-03T08:34:01.462Z,4.50
2022-08-03T08:35:00.750Z,3.63
2022-08-03T08:36:05.183Z,3.65
2022-08-03T08:37:09.285Z,5.50
2022-08-03T08:38:13.269Z,3.10
2022-08-03T08:39:17.588Z,4.45
2022-08-03T08:40:23.850Z,3.85
2022-08-03T08:41:32.071Z,5.22
2022-08-03T08:42:40.298Z,4.15
2022-08-03T08:43:48.726Z,3.05
2022-08-03T08:44:53.163Z,3.85
2022-08-03T08:46:00.030Z,3.75
2022-08-03T08:47:05.049Z,3.40
2022-08-03T08:48:13.516Z,3.72
2022-08-03T08:49:23.819Z,2.75
2022-08-03T08:50:28.416Z,3.92
2022-08-03T08:51:59.353Z,6.70
2022-08-03T08:53:04.475Z,2.72
2022-08-03T08:54:10.097Z,2.97
2022-08-03T08:55:20.759Z,4.07
2022-08-03T08:56:27.255Z,3.38
2022-08-03T08:57:49.847Z,3.65
2022-08-03T08:58:59.385Z,3.38
2022-08-03T09:00:10.080Z,3.15
2022-08-03T09:01:14.310Z,3.78
2022-08-03T09:02:19.078Z,3.35
2022-08-03T09:03:29.742Z,9.30
2022-08-03T09:04:35.096Z,2.65
2022-08-03T09:05:55.306Z,3.83
2022-08-03T09:07:19.241Z,4.05
2022-08-03T09:08:24.629Z,3.58
2022-08-03T09:10:10.901Z,5.05
2022-08-03T09:10:53.025Z,3.33
2022-08-03T09:12:09.024Z,3.40
2022-08-03T09:13:22.363Z,4.28
2022-08-03T09:14:36.739Z,4.60
2022-08-03T09:15:42.562Z,5.47
2022-08-03T09:17:05.461Z,3.17
2022-08-03T09:18:09.992Z,3.38
2022-08-03T09:19:15.634Z,3.30
2022-08-03T09:20:22.614Z,3.08
2022-08-03T09:21:32.606Z,4.25
2022-08-03T09:22:53.112Z,2.88
2022-08-03T09:24:02.862Z,2.95
2022-08-03T09:25:24.386Z,6.88
2022-08-03T09:26:32.175Z,3.60
2022-08-03T09:27:46.941Z,3.20
2022-08-03T09:29:07.139Z,3.15
2022-08-03T09:30:34.519Z,2.92
2022-08-03T09:31:47.074Z,3.17
2022-08-03T09:32:51.437Z,3.35
2022-08-03T09:34:01.475Z,3.92
2022-08-03T09:35:06.616Z,3.03
2022-08-03T09:36:38.494Z,3.83
2022-08-03T09:38:12.027Z,2.97
2022-08-03T09:39:15.795Z,6.95
2022-08-03T09:40:36.638Z,4.43
2022-08-03T09:41:44.255Z,3.10
2022-08-03T09:42:57.863Z,3.92
2022-08-03T09:44:02.074Z,3.42
2022-08-03T09:45:07.003Z,4.13
2022-08-03T09:46:11.006Z,3.30
2022-08-03T09:47:28.360Z,3.47
2022-08-03T09:48:37.563Z,3.45
2022-08-03T09:49:56.189Z,3.85
2022-08-03T09:51:12.765Z,3.05
2022-08-03T09:52:39.438Z,2.88
2022-08-03T09:53:51.477Z,3.55
2022-08-03T09:56:32.514Z,2.63
2022-08-03T09:56:48.153Z,3.33
2022-08-03T09:57:52.989Z,3.75
2022-08-03T09:58:57.281Z,2.70
2022-08-03T10:00:12.371Z,2.72
2022-08-03T10:01:25.323Z,3.53
2022-08-03T10:02:29.585Z,3.45
2022-08-03T10:04:03.427Z,2.83
2022-08-03T10:05:01.893Z,2.63
2022-08-03T10:06:19.939Z,2.67
2022-08-03T10:07:25.430Z,2.53
2022-08-03T10:08:32.160Z,3.30
2022-08-03T10:09:39.223Z,3.53
2022-08-03T10:10:46.487Z,2.70
2022-08-03T10:11:50.670Z,2.70
2022-08-03T10:12:54.829Z,4.93
2022-08-03T10:14:01.445Z,3.28
2022-08-03T10:15:07.157Z,2.60
2022-08-03T10:16:39.925Z,3.35
2022-08-03T10:17:44.115Z,3.08
2022-08-03T10:18:48.068Z,2.92
2022-08-03T10:19:52.392Z,2.28
2022-08-03T10:21:05.602Z,2.72
2022-08-03T10:22:37.505Z,2.30
2022-08-03T10:23:42.887Z,2.47
2022-08-03T10:25:10.063Z,2.20
2022-08-03T10:26:19.403Z,2.42
2022-08-03T10:27:26.975Z,3.65
2022-08-03T10:28:50.129Z,2.33
2022-08-03T10:29:59.316Z,4.53
2022-08-03T10:31:07.987Z,2.80
2022-08-03T10:32:30.795Z,3.53
2022-08-03T10:33:51.765Z,3.33
2022-08-03T10:35:20.112Z,2.97
2022-08-03T10:36:31.037Z,3.35
2022-08-03T10:37:56.428Z,4.32
2022-08-03T10:39:03.928Z,2.63
2022-08-03T10:40:46.802Z,2.55
2022-08-03T10:41:51.100Z,3.88
2022-08-03T10:43:13.433Z,2.42
2022-08-03T10:44:24.911Z,4.63
2022-08-03T10:45:29.275Z,2.33
2022-08-03T10:46:39.289Z,3.03
2022-08-03T10:47:49.132Z,4.38
2022-08-03T10:48:54.224Z,1.42
2022-08-03T10:50:00.285Z,1.80
2022-08-03T10:51:07.055Z,2.13
2022-08-03T10:52:13.794Z,3.33
2022-08-03T10:53:38.295Z,2.22
2022-08-03T10:55:07.548Z,2.47
2022-08-03T10:56:52.232Z,4.88
2022-08-03T10:57:59.183Z,2.47
2022-08-03T10:59:03.713Z,2.30
2022-08-03T11:00:09.734Z,2.53
2022-08-03T11:01:14.627Z,3.72
2022-08-03T11:02:19.808Z,2.95
2022-08-03T11:03:24.020Z,2.40
2022-08-03T11:04:30.331Z,2.65
2022-08-03T11:05:54.644Z,2.45
2022-08-03T11:07:26.091Z,2.15
2022-08-03T11:08:37.479Z,3.15
2022-08-03T11:09:56.465Z,3.50
2022-08-03T11:11:28.798Z,3.55
2022-08-03T11:12:34.318Z,2.72
2022-08-03T11:13:38.927Z,2.75
2022-08-03T11:14:50.517Z,2.22
2022-08-03T11:16:01.690Z,4.43
2022-08-03T11:17:14.440Z,2.67
2022-08-03T11:18:19.215Z,2.60
2022-08-03T11:19:28.245Z,4.43
2022-08-03T11:20:51.374Z,3.70
2022-08-03T11:21:58.059Z,2.95
2022-08-03T11:23:03.236Z,1.83
2022-08-03T11:24:07.546Z,1.95
2022-08-03T11:25:53.969Z,2.35
2022-08-03T11:26:36.498Z,2.22
2022-08-03T11:27:40.568Z,2.30
2022-08-03T11:28:47.443Z,1.73
2022-08-03T11:29:58.381Z,3.00
2022-08-03T11:31:48.743Z,4.82
2022-08-03T11:32:49.191Z,6.35
2022-08-03T11:34:12.548Z,2.00
2022-08-03T11:35:22.949Z,2.70
2022-08-03T11:36:32.002Z,2.08
2022-08-03T11:38:03.004Z,2.50
2022-08-03T11:39:17.284Z,2.17
2022-08-03T11:40:53.024Z,1.92
2022-08-03T11:41:57.057Z,2.60
2022-08-03T11:43:01.903Z,2.08
2022-08-03T11:44:05.968Z,2.17
2022-08-03T11:45:10.184Z,2.33
2022-08-03T11:46:28.472Z,5.28
2022-08-03T11:47:50.881Z,4.35
2022-08-03T11:49:09.979Z,2.20
2022-08-03T11:50:17.390Z,2.33
2022-08-03T11:51:32.399Z,1.85
2022-08-03T11:52:40.610Z,2.20
2022-08-03T11:53:44.766Z,2.13
2022-08-03T11:54:57.023Z,4.38
2022-08-03T11:56:03.494Z,2.60
2022-08-03T11:57:09.206Z,3.20
2022-08-03T11:59:10.607Z,2.38
2022-08-03T11:59:42.676Z,8.77
2022-08-03T12:00:47.139Z,2.72
2022-08-03T12:01:51.539Z,2.22
2022-08-03T12:03:08.921Z,2.83
2022-08-03T12:04:13.056Z,4.30
2022-08-03T12:05:17.137Z,2.55
2022-08-03T12:06:21.318Z,3.55
2022-08-03T12:08:03.212Z,2.33
2022-08-03T12:08:52.078Z,2.22
2022-08-03T12:10:14.671Z,4.18
2022-08-03T12:11:18.954Z,3.97
2022-08-03T12:12:22.979Z,1.88
2022-08-03T12:14:43.924Z,2.28
2022-08-03T12:15:07.532Z,3.60
2022-08-03T12:16:19.035Z,2.60
2022-08-03T12:17:23.185Z,3.17
2022-08-03T12:18:27.487Z,3.55
2022-08-03T12:19:44.026Z,4.13
2022-08-03T12:20:51.167Z,2.90
2022-08-03T12:21:57.225Z,2.28
2022-08-03T12:23:07.598Z,2.35
2022-08-03T12:24:12.505Z,2.30
2022-08-03T12:25:39.049Z,2.58
2022-08-03T12:26:58.372Z,3.00
2022-08-03T12:28:36.037Z,5.50
2022-08-03T12:29:37.871Z,2.33
2022-08-03T12:30:42.477Z,2.92
2022-08-03T12:31:46.808Z,3.55
2022-08-03T12:32:50.939Z,3.80
2022-08-03T12:34:03.567Z,2.28
2022-08-03T12:35:08.712Z,2.85
2022-08-03T12:36:12.923Z,2.35
2022-08-03T12:37:23.977Z,2.67
2022-08-03T12:38:29.659Z,2.20
2022-08-03T12:39:34.744Z,3.25
2022-08-03T12:40:39.097Z,2.83
2022-08-03T12:41:43.401Z,4.63
2022-08-03T12:42:47.828Z,2.88
2022-08-03T12:43:52.465Z,3.03
2022-08-03T12:44:56.591Z,2.25
2022-08-03T12:46:20.134Z,2.38
2022-08-03T12:47:24.211Z,2.30
2022-08-03T12:48:29.676Z,2.47
2022-08-03T12:49:52.824Z,2.97
2022-08-03T12:51:11.057Z,3.00
2022-08-03T12:52:16.464Z,4.90
2022-08-03T12:53:30.526Z,3.92
2022-08-03T12:54:36.382Z,3.05
2022-08-03T12:55:57.930Z,2.53
2022-08-03T12:57:15.633Z,3.58
2022-08-03T12:58:35.563Z,3.13
2022-08-03T12:59:53.265Z,2.83
2022-08-03T13:00:57.967Z,3.10
2022-08-03T13:02:04.329Z,5.57
2022-08-03T13:03:38.892Z,6.38
2022-08-03T13:04:38.202Z,2.75
2022-08-03T13:05:45.936Z,2.42
2022-08-03T13:07:02.755Z,2.90
2022-08-03T13:08:23.125Z,3.42
2022-08-03T13:09:29.005Z,3.17
2022-08-03T13:10:35.530Z,3.35
2022-08-03T13:11:55.507Z,2.17
2022-08-03T13:13:03.868Z,2.17
2022-08-03T13:14:07.950Z,2.20
2022-08-03T13:15:11.893Z,3.45
2022-08-03T13:16:19.296Z,3.38
2022-08-03T13:17:24.103Z,2.53
2022-08-03T13:18:28.250Z,2.20
2022-08-03T13:19:34.758Z,6.28
2022-08-03T13:20:39.336Z,3.70
2022-08-03T13:21:53.523Z,2.22
2022-08-03T13:23:15.389Z,3.10
2022-08-03T13:24:26.535Z,2.30
2022-08-03T13:25:31.264Z,3.03
2022-08-03T13:26:35.505Z,2.60
2022-08-03T13:28:13.911Z,3.45
2022-08-03T13:29:04.655Z,2.80
2022-08-03T13:30:10.577Z,2.55
2022-08-03T13:31:14.651Z,3.22
2022-08-03T13:32:18.783Z,4.85
2022-08-03T13:33:22.996Z,2.75
2022-08-03T13:34:27.099Z,2.30
2022-08-03T13:35:30.973Z,2.63
2022-08-03T13:36:59.162Z,4.30
2022-08-03T13:37:59.911Z,3.45
2022-08-03T13:39:04.307Z,2.78
2022-08-03T13:40:13.298Z,2.70
2022-08-03T13:41:18.746Z,4.45
2022-08-03T13:42:38.817Z,5.00
2022-08-03T13:43:43.431Z,2.80
2022-08-03T13:44:47.383Z,4.80
2022-08-03T13:45:54.983Z,6.25
2022-08-03T13:47:01.999Z,2.22
2022-08-03T13:48:06.824Z,5.43
2022-08-03T13:49:10.732Z,2.90
2022-08-03T13:50:15.926Z,3.55
2022-08-03T13:51:22.602Z,4.32
2022-08-03T13:52:27.226Z,3.17
2022-08-03T13:53:31.727Z,2.97
2022-08-03T13:54:36.561Z,5.82
2022-08-03T13:55:40.693Z,2.38
2022-08-03T13:56:50.285Z,3.35
2022-08-03T13:58:03.563Z,2.88
2022-08-03T13:59:11.382Z,2.05
2022-08-03T14:00:27.058Z,4.63
2022-08-03T14:01:54.252Z,2.67
2022-08-03T14:03:10.844Z,2.40
2022-08-03T14:04:22.110Z,2.92
2022-08-03T14:05:26.837Z,2.63
2022-08-03T14:06:31.697Z,2.30
2022-08-03T14:07:35.794Z,2.25
2022-08-03T14:08:40.025Z,2.70
2022-08-03T14:09:44.152Z,2.42
2022-08-03T14:10:48.319Z,3.25
2022-08-03T14:12:07.741Z,3.08
2022-08-03T14:13:17.753Z,3.10
2022-08-03T14:14:22.460Z,2.65
2022-08-03T14:15:26.958Z,2.83
2022-08-03T14:16:31.159Z,2.55
2022-08-03T14:17:42.054Z,1.80
2022-08-03T14:18:53.505Z,2.42
2022-08-03T14:19:57.404Z,3.45
2022-08-03T14:21:06.318Z,2.00
2022-08-03T14:22:10.941Z,2.65
2022-08-03T14:23:16.052Z,2.50
2022-08-03T14:24:19.954Z,1.98
2022-08-03T14:25:24.079Z,4.00
2022-08-03T14:26:28.164Z,1.77
2022-08-03T14:27:32.508Z,2.97
2022-08-03T14:28:37.069Z,2.15
2022-08-03T14:29:42.725Z,2.50
2022-08-03T14:30:48.066Z,3.00
2022-08-03T14:32:11.016Z,2.33
2022-08-03T14:33:16.556Z,2.35
2022-08-03T14:34:20.839Z,3.15
2022-08-03T14:35:25.516Z,2.72
2022-08-03T14:36:29.773Z,4.82
2022-08-03T14:37:34.085Z,2.72
2022-08-03T14:38:38.105Z,2.40
2022-08-03T14:41:06.365Z,2.28
2022-08-03T14:42:17.111Z,2.80
2022-08-03T14:43:21.789Z,2.55
2022-08-03T14:44:25.870Z,2.97
2022-08-03T14:45:30.242Z,2.63
2022-08-03T14:46:34.338Z,8.35
2022-08-03T14:50:27.763Z,3.72
2022-08-03T14:50:35.758Z,2.78
2022-08-03T14:50:42.072Z,3.13
2022-08-03T14:51:51.671Z,3.08
2022-08-03T14:52:58.446Z,2.55
2022-08-03T14:54:02.758Z,2.53
2022-08-03T14:55:07.177Z,6.13
2022-08-03T14:56:11.721Z,2.72
2022-08-03T14:57:15.892Z,2.20
2022-08-03T14:58:26.283Z,2.05
2022-08-03T14:59:56.820Z,4.63
2022-08-03T15:00:56.796Z,3.10
2022-08-03T15:02:05.354Z,4.70
2022-08-03T15:03:11.789Z,3.13
2022-08-03T15:04:21.084Z,2.95
2022-08-03T15:05:25.191Z,2.78
2022-08-03T15:06:29.366Z,4.07
2022-08-03T15:07:33.393Z,2.88
2022-08-03T15:08:37.558Z,3.05
2022-08-03T15:09:41.959Z,3.42
2022-08-03T15:10:46.171Z,2.63
2022-08-03T15:11:53.981Z,2.60
2022-08-03T15:12:58.089Z,5.38
2022-08-03T15:14:05.040Z,2.22
2022-08-03T15:15:13.434Z,7.57
2022-08-03T15:16:19.935Z,3.40
2022-08-03T15:17:24.521Z,3.67
2022-08-03T15:18:28.453Z,2.67
2022-08-03T15:20:05.566Z,2.53
2022-08-03T15:20:57.253Z,3.28
2022-08-03T15:22:01.795Z,4.63
2022-08-03T15:23:06.424Z,4.65
2022-08-03T15:24:10.574Z,3.40
2022-08-03T15:26:32.398Z,3.03